createdAt,value
2018-11-05T00:02:05.742Z,100200.43
2018-11-05T00:04:34.557Z,100204.45
2018-11-05T00:07:03.253Z,100201.68
2018-11-05T00:09:31.826Z,100205.70
2018-11-05T00:12:00.392Z,100197.88
2018-11-05T00:14:28.961Z,100194.98
2018-11-05T00:16:57.489Z,100197.58
2018-11-05T00:19:26.013Z,100189.55
2018-11-05T00:21:54.562Z,100189.63
2018-11-05T00:24:23.097Z,100186.56
2018-11-05T00:26:51.655Z,100191.40
2018-11-05T00:29:20.292Z,100188.30
2018-11-05T00:31:48.847Z,100190.45
2018-11-05T00:34:17.396Z,100192.09
2018-11-05T00:36:45.978Z,100185.31
2018-11-05T00:39:14.533Z,100185.31
2018-11-05T00:41:43.284Z,100179.56
2018-11-05T00:44:11.925Z,100176.98
2018-11-05T00:46:40.468Z,100164.02
2018-11-05T00:49:09.051Z,100156.39
2018-11-05T00:51:37.641Z,100149.70
2018-11-05T00:54:06.553Z,100155.36
2018-11-05T00:56:35.115Z,100158.24
2018-11-05T00:59:03.712Z,100166.48
2018-11-05T01:01:32.288Z,100156.29
2018-11-05T01:04:00.924Z,100148.69
2018-11-05T01:06:29.474Z,100150.23
2018-11-05T01:08:58.022Z,100141.09
2018-11-05T01:11:26.608Z,100147.45
2018-11-05T01:13:55.170Z,100147.88
2018-11-05T01:16:23.681Z,100147.75
2018-11-05T01:18:52.884Z,100140.88
2018-11-05T01:21:21.449Z,100141.70
2018-11-05T01:23:49.989Z,100143.22
2018-11-05T01:26:18.506Z,100135.62
2018-11-05T01:28:47.242Z,100142.30
2018-11-05T01:31:15.969Z,100144.47
2018-11-05T01:33:44.861Z,100143.55
2018-11-05T01:36:13.989Z,100137.05
2018-11-05T01:38:43.223Z,100133.77
2018-11-05T01:41:11.821Z,100126.86
2018-11-05T01:43:41.135Z,100129.36
2018-11-05T01:46:09.746Z,100126.34
2018-11-05T01:48:38.339Z,100120.39
2018-11-05T01:51:07.486Z,100118.66
2018-11-05T01:53:36.313Z,100118.53
2018-11-05T01:56:05.066Z,100108.47
2018-11-05T01:58:33.728Z,100117.43
2018-11-05T02:01:02.629Z,100117.12
2018-11-05T02:03:31.163Z,100116.48
2018-11-05T02:05:59.749Z,100113.62
2018-11-05T02:08:28.258Z,100113.00
2018-11-05T02:10:56.799Z,100109.80
2018-11-05T02:13:25.409Z,100103.93
2018-11-05T02:15:54.211Z,100107.54
2018-11-05T02:18:22.911Z,100116.08
2018-11-05T02:20:51.479Z,100112.58
2018-11-05T02:23:20.014Z,100109.18
2018-11-05T02:25:48.558Z,100111.97
2018-11-05T02:28:17.148Z,100116.80
2018-11-05T02:30:45.773Z,100110.22
2018-11-05T02:33:14.346Z,100117.33
2018-11-05T02:35:42.938Z,100123.80
2018-11-05T02:38:11.498Z,100122.16
2018-11-05T02:40:40.206Z,100125.44
2018-11-05T02:43:08.811Z,100133.98
2018-11-05T02:45:37.463Z,100125.13
2018-11-05T02:48:06.339Z,100125.86
2018-11-05T02:50:36.639Z,100122.67
2018-11-05T02:53:05.269Z,100119.27
2018-11-05T02:55:33.886Z,100115.66
2018-11-05T02:58:02.552Z,100112.80
2018-11-05T03:00:31.098Z,100112.89
2018-11-05T03:02:59.682Z,100113.93
2018-11-05T03:05:28.405Z,100109.28
2018-11-05T03:07:56.942Z,100109.28
2018-11-05T03:10:25.597Z,100104.45
2018-11-05T03:12:54.212Z,100114.13
2018-11-05T03:15:22.770Z,100111.44
2018-11-05T03:17:51.329Z,100108.46
2018-11-05T03:20:19.889Z,100116.61
2018-11-05T03:22:48.426Z,100121.01
2018-11-05T03:25:16.990Z,100114.75
2018-11-05T03:27:45.582Z,100114.54
2018-11-05T03:30:15.940Z,100113.81
2018-11-05T03:32:44.682Z,100104.75
2018-11-05T03:35:14.070Z,100097.16
2018-11-05T03:37:43.532Z,100092.11
2018-11-05T03:40:12.953Z,100085.84
2018-11-05T03:42:42.404Z,100088.63
2018-11-05T03:45:12.519Z,100081.94
2018-11-05T03:47:41.077Z,100080.89
2018-11-05T03:50:11.947Z,100080.09
2018-11-05T03:52:40.603Z,100079.75
2018-11-05T03:55:09.293Z,100074.13
2018-11-05T03:57:38.007Z,100078.82
2018-11-05T04:00:07.582Z,100074.63
2018-11-05T04:02:36.202Z,100069.47
2018-11-05T04:05:05.035Z,100072.86
2018-11-05T04:07:33.569Z,100072.33
2018-11-05T04:10:02.197Z,100067.61
2018-11-05T04:12:30.769Z,100071.70
2018-11-05T04:14:59.314Z,100079.28
2018-11-05T04:17:27.862Z,100072.88
2018-11-05T04:19:56.454Z,100077.74
2018-11-05T04:22:24.983Z,100075.25
2018-11-05T04:24:53.537Z,100073.30
2018-11-05T04:27:22.143Z,100063.55
2018-11-05T04:29:50.721Z,100060.56
2018-11-05T04:32:19.306Z,100060.44
2018-11-05T04:34:47.939Z,100056.63
2018-11-05T04:37:16.521Z,100053.97
2018-11-05T04:39:45.065Z,100052.63
2018-11-05T04:42:14.333Z,100058.80
2018-11-05T04:44:43.050Z,100049.45
2018-11-05T04:47:11.739Z,100056.12
2018-11-05T04:49:41.209Z,100057.97
2018-11-05T04:52:09.967Z,100063.00
2018-11-05T04:54:38.654Z,100060.84
2018-11-05T04:57:07.313Z,100059.82
2018-11-05T04:59:36.451Z,100060.23
2018-11-05T05:02:05.346Z,100064.11
2018-11-05T05:04:33.969Z,100064.22
2018-11-05T05:07:02.621Z,100066.27
2018-11-05T05:09:31.445Z,100069.04
2018-11-05T05:12:00.045Z,100063.39
2018-11-05T05:14:28.637Z,100063.39
2018-11-05T05:16:57.137Z,100068.42
2018-11-05T05:19:26.013Z,100069.97
2018-11-05T05:21:54.664Z,100060.48
2018-11-05T05:24:23.261Z,100066.55
2018-11-05T05:26:52.504Z,100064.39
2018-11-05T05:29:21.025Z,100064.91
2018-11-05T05:31:49.726Z,100063.05
2018-11-05T05:34:18.369Z,100057.72
2018-11-05T05:36:47.013Z,100065.11
2018-11-05T05:39:15.615Z,100060.90
2018-11-05T05:41:44.686Z,100064.91
2018-11-05T05:44:13.305Z,100070.66
2018-11-05T05:46:42.105Z,100065.83
2018-11-05T05:49:10.829Z,100066.47
2018-11-05T05:51:39.559Z,100065.86
2018-11-05T05:54:08.759Z,100073.14
2018-11-05T05:56:37.810Z,100067.80
2018-11-05T05:59:06.477Z,100066.78
2018-11-05T06:01:35.049Z,100072.13
2018-11-05T06:04:04.913Z,100069.45
2018-11-05T06:06:33.689Z,100068.76
2018-11-05T06:09:02.503Z,100078.62
2018-11-05T06:11:32.462Z,100075.30
2018-11-05T06:14:01.157Z,100079.55
2018-11-05T06:16:29.821Z,100086.11
2018-11-05T06:18:58.414Z,100088.61
2018-11-05T06:21:26.953Z,100093.94
2018-11-05T06:23:55.508Z,100092.91
2018-11-05T06:26:24.078Z,100092.25
2018-11-05T06:28:52.679Z,100082.02
2018-11-05T06:31:21.262Z,100093.00
2018-11-05T06:33:49.821Z,100086.85
2018-11-05T06:36:18.449Z,100084.09
2018-11-05T06:38:46.978Z,100086.44
2018-11-05T06:41:15.902Z,100088.51
2018-11-05T06:43:44.666Z,100089.02
2018-11-05T06:46:13.626Z,100088.62
2018-11-05T06:48:42.583Z,100086.00
2018-11-05T06:51:11.295Z,100094.02
2018-11-05T06:53:39.882Z,100092.23
2018-11-05T06:56:08.462Z,100089.55
2018-11-05T06:58:37.701Z,100090.59
2018-11-05T07:01:06.866Z,100091.59
2018-11-05T07:03:35.681Z,100089.55
2018-11-05T07:06:04.345Z,100089.25
2018-11-05T07:08:32.958Z,100105.53
2018-11-05T07:11:01.554Z,100104.52
2018-11-05T07:13:30.251Z,100098.47
2018-11-05T07:15:58.792Z,100105.46
2018-11-05T07:18:27.456Z,100104.85
2018-11-05T07:20:56.090Z,100107.22
2018-11-05T07:23:24.673Z,100112.06
2018-11-05T07:25:53.333Z,100107.02
2018-11-05T07:28:22.027Z,100100.11
2018-11-05T07:30:50.571Z,100106.80
2018-11-05T07:33:19.222Z,100107.31
2018-11-05T07:35:47.915Z,100106.66
2018-11-05T07:38:16.446Z,100110.25
2018-11-05T07:40:45.131Z,100113.95
2018-11-05T07:43:13.662Z,100113.81
2018-11-05T07:45:42.213Z,100105.31
2018-11-05T07:48:10.783Z,100107.73
2018-11-05T07:50:39.339Z,100112.99
2018-11-05T07:53:08.082Z,100118.34
2018-11-05T07:55:36.861Z,100115.23
2018-11-05T07:58:05.451Z,100120.81
2018-11-05T08:00:39.334Z,100117.09
2018-11-05T08:03:07.870Z,100124.31
2018-11-05T08:05:36.437Z,100124.61
2018-11-05T08:08:06.387Z,100119.98
2018-11-05T08:10:35.098Z,100124.39
2018-11-05T08:13:03.661Z,100119.75
2018-11-05T08:15:32.264Z,100124.16
2018-11-05T08:18:00.806Z,100124.32
2018-11-05T08:20:29.372Z,100122.64
2018-11-05T08:22:58.020Z,100131.06
2018-11-05T08:25:26.697Z,100127.71
2018-11-05T08:27:55.282Z,100130.58
2018-11-05T08:30:25.073Z,100128.62
2018-11-05T08:32:53.847Z,100124.62
2018-11-05T08:35:23.139Z,100123.09
2018-11-05T08:37:52.226Z,100125.85
2018-11-05T08:40:26.576Z,100129.38
2018-11-05T08:42:56.462Z,100125.46
2018-11-05T08:45:26.438Z,100129.27
2018-11-05T08:47:55.023Z,100131.06
2018-11-05T08:50:24.453Z,100128.51
2018-11-05T08:52:53.151Z,100128.50
2018-11-05T08:55:25.323Z,100124.63
2018-11-05T08:57:56.114Z,100116.81
2018-11-05T09:00:29.978Z,100120.07
2018-11-05T09:02:58.518Z,100123.20
2018-11-05T09:05:27.133Z,100119.61
2018-11-05T09:07:56.360Z,100126.86
2018-11-05T09:10:24.999Z,100124.41
2018-11-05T09:12:53.729Z,100120.66
2018-11-05T09:15:22.976Z,100123.47
2018-11-05T09:17:51.788Z,100114.81
2018-11-05T09:20:20.718Z,100119.02
2018-11-05T09:22:50.466Z,100132.97
2018-11-05T09:25:19.537Z,100119.08
2018-11-05T09:27:48.144Z,100124.84
2018-11-05T09:30:20.092Z,100116.69
2018-11-05T09:32:48.687Z,100120.97
2018-11-05T09:35:17.278Z,100115.75
2018-11-05T09:37:45.864Z,100111.85
2018-11-05T09:40:18.193Z,100112.43
2018-11-05T09:42:47.803Z,100101.91
2018-11-05T09:45:19.917Z,100113.09
2018-11-05T09:47:48.604Z,100105.94
2018-11-05T09:50:17.896Z,100110.51
2018-11-05T09:52:46.469Z,100105.13
2018-11-05T09:55:15.729Z,100104.36
2018-11-05T09:57:44.285Z,100105.55
2018-11-05T10:00:16.577Z,100097.13
2018-11-05T10:02:50.485Z,100100.16
2018-11-05T10:05:19.327Z,100093.71
2018-11-05T10:07:48.010Z,100095.88
2018-11-05T10:10:17.470Z,100090.48
2018-11-05T10:12:46.103Z,100082.94
2018-11-05T10:15:16.047Z,100095.85
2018-11-05T10:17:44.764Z,100069.56
2018-11-05T10:20:17.861Z,100079.69
2018-11-05T10:22:46.853Z,100084.73
2018-11-05T10:25:15.899Z,100079.12
2018-11-05T10:27:45.060Z,100082.00
2018-11-05T10:30:21.927Z,100069.97
2018-11-05T10:32:50.578Z,100058.30
2018-11-05T10:35:20.253Z,100057.70
2018-11-05T10:37:48.929Z,100063.20
2018-11-05T10:40:19.338Z,100066.64
2018-11-05T10:42:48.620Z,100053.97
2018-11-05T10:45:18.552Z,100067.89
2018-11-05T10:47:47.175Z,100059.02
2018-11-05T10:50:16.716Z,100054.84
2018-11-05T10:52:46.777Z,100051.66
2018-11-05T10:55:15.710Z,100053.73
2018-11-05T10:57:44.564Z,100049.22
2018-11-05T11:00:19.954Z,100045.25
2018-11-05T11:02:53.639Z,100056.30
2018-11-05T11:05:22.955Z,100051.01
2018-11-05T11:07:52.117Z,100054.41
2018-11-05T11:10:20.692Z,100046.59
2018-11-05T11:12:49.304Z,100041.44
2018-11-05T11:15:17.993Z,100037.33
2018-11-05T11:17:46.681Z,100043.75
2018-11-05T11:20:15.353Z,100039.41
2018-11-05T11:22:43.874Z,100046.98
2018-11-05T11:25:12.578Z,100026.08
2018-11-05T11:27:41.215Z,100022.62
2018-11-05T11:30:11.600Z,100013.30
2018-11-05T11:32:40.780Z,100017.59
2018-11-05T11:35:09.913Z,100021.89
2018-11-05T11:37:38.759Z,100018.68
2018-11-05T11:40:15.310Z,100008.66
2018-11-05T11:42:44.874Z,100018.12
2018-11-05T11:45:14.152Z,100002.64
2018-11-05T11:47:42.824Z,99993.27
2018-11-05T11:50:13.455Z,99992.01
2018-11-05T11:52:42.337Z,99981.83
2018-11-05T11:55:13.366Z,99980.98
2018-11-05T11:57:42.253Z,99988.81
2018-11-05T12:00:16.761Z,99980.24
2018-11-05T12:02:46.388Z,99986.76
2018-11-05T12:05:15.073Z,99985.50
2018-11-05T12:07:44.150Z,99988.06
2018-11-05T12:10:15.123Z,99979.67
2018-11-05T12:12:44.078Z,99964.69
2018-11-05T12:15:13.422Z,99970.41
2018-11-05T12:17:43.015Z,99964.96
2018-11-05T12:20:13.791Z,99967.72
2018-11-05T12:22:42.997Z,99961.27
2018-11-05T12:25:11.594Z,99961.28
2018-11-05T12:27:40.165Z,99957.24
2018-11-05T12:30:18.650Z,99957.30
2018-11-05T12:32:47.940Z,99958.94
2018-11-05T12:37:57.173Z,99945.97
2018-11-05T12:40:25.706Z,99942.45
2018-11-05T12:42:54.513Z,99941.97
2018-11-05T12:45:23.154Z,99945.83
2018-11-05T12:47:51.685Z,99944.23
2018-11-05T12:50:21.501Z,99935.35
2018-11-05T12:52:51.110Z,99930.50
2018-11-05T12:55:19.683Z,99932.40
2018-11-05T12:57:48.568Z,99932.72
2018-11-05T13:00:19.123Z,99925.97
2018-11-05T13:02:52.779Z,99926.53
2018-11-05T13:05:21.677Z,99925.17
2018-11-05T13:07:50.317Z,99928.73
2018-11-05T13:10:18.897Z,99927.13
2018-11-05T13:12:47.574Z,99928.76
2018-11-05T13:15:16.326Z,99923.62
2018-11-05T13:17:44.986Z,99917.94
2018-11-05T13:20:17.525Z,99924.20
2018-11-05T13:22:46.416Z,99919.88
2018-11-05T13:25:15.169Z,99911.77
2018-11-05T13:27:45.813Z,99916.36
2018-11-05T13:30:15.249Z,99915.55
2018-11-05T13:32:44.264Z,99912.78
2018-11-05T13:35:14.557Z,99915.50
2018-11-05T13:37:43.360Z,99912.25
2018-11-05T13:40:17.098Z,99910.94
2018-11-05T13:42:46.177Z,99902.83
2018-11-05T13:45:15.440Z,99897.13
2018-11-05T13:47:44.848Z,99896.28
2018-11-05T13:50:13.665Z,99892.16
2018-11-05T13:52:42.393Z,99898.62
2018-11-05T13:55:13.054Z,99893.44
2018-11-05T13:57:42.685Z,99896.08
2018-11-05T14:00:13.498Z,99892.76
2018-11-05T14:02:42.214Z,99888.67
2018-11-05T14:05:11.783Z,99892.66
2018-11-05T14:07:40.701Z,99896.66
2018-11-05T14:10:13.806Z,99893.94
2018-11-05T14:12:43.375Z,99898.42
2018-11-05T14:15:12.050Z,99894.30
2018-11-05T14:17:41.394Z,99887.71
2018-11-05T14:20:11.572Z,99891.11
2018-11-05T14:22:40.583Z,99888.02
2018-11-05T14:25:12.214Z,99888.47
2018-11-05T14:27:41.416Z,99883.27
2018-11-05T14:30:12.962Z,99886.69
2018-11-05T14:32:43.180Z,99890.72
2018-11-05T14:35:12.097Z,99885.50
2018-11-05T14:37:40.741Z,99879.78
2018-11-05T14:40:11.043Z,99885.33
2018-11-05T14:42:39.658Z,99888.91
2018-11-05T14:45:10.841Z,99888.58
2018-11-05T14:47:39.875Z,99895.75
2018-11-05T14:50:11.393Z,99897.02
2018-11-05T14:52:39.970Z,99887.15
2018-11-05T14:55:11.019Z,99881.13
2018-11-05T14:57:39.778Z,99879.66
2018-11-05T15:00:19.327Z,99886.51
2018-11-05T15:02:48.871Z,99885.00
2018-11-05T15:05:17.830Z,99880.58
2018-11-05T15:07:47.231Z,99878.28
2018-11-05T15:10:21.068Z,99883.61
2018-11-05T15:12:49.653Z,99880.97
2018-11-05T15:15:18.835Z,99882.42
2018-11-05T15:17:47.709Z,99891.75
2018-11-05T15:20:17.917Z,99885.98
2018-11-05T15:22:46.342Z,99889.13
2018-11-05T15:25:16.076Z,99883.88
2018-11-05T15:27:44.718Z,99878.34
2018-11-05T15:30:17.017Z,99891.48
2018-11-05T15:32:45.846Z,99890.56
2018-11-05T15:35:14.920Z,99893.09
2018-11-05T15:37:43.810Z,99892.53
2018-11-05T15:40:15.744Z,99889.44
2018-11-05T15:42:44.290Z,99889.56
2018-11-05T15:45:14.542Z,99891.16
2018-11-05T15:47:43.375Z,99888.46
2018-11-05T15:50:14.845Z,99891.84
2018-11-05T15:52:43.895Z,99894.58
2018-11-05T15:55:12.545Z,99887.71
2018-11-05T15:57:41.306Z,99885.17
2018-11-05T16:00:17.286Z,99888.83
2018-11-05T16:02:47.513Z,99893.02
2018-11-05T16:05:16.102Z,99889.41
2018-11-05T16:07:44.899Z,99883.25
2018-11-05T16:10:13.475Z,99890.23
2018-11-05T16:12:42.798Z,99891.33
2018-11-05T16:15:12.226Z,99892.14
2018-11-05T16:17:42.923Z,99894.80
2018-11-05T16:20:13.773Z,99904.41
2018-11-05T16:22:42.555Z,99896.81
2018-11-05T16:25:11.202Z,99897.59
2018-11-05T16:27:39.932Z,99895.43
2018-11-05T16:30:11.262Z,99899.61
2018-11-05T16:32:39.925Z,99909.84
2018-11-05T16:35:08.782Z,99902.87
2018-11-05T16:37:37.497Z,99903.16
2018-11-05T16:40:08.228Z,99903.12
2018-11-05T16:42:37.187Z,99897.38
2018-11-05T16:45:06.698Z,99908.31
2018-11-05T16:47:35.401Z,99907.91
2018-11-05T16:50:04.469Z,99908.86
2018-11-05T16:52:33.016Z,99908.66
2018-11-05T16:55:01.659Z,99914.36
2018-11-05T16:57:30.236Z,99907.46
2018-11-05T16:59:58.949Z,99909.94
2018-11-05T17:02:27.813Z,99913.23
2018-11-05T17:04:56.397Z,99912.52
2018-11-05T17:07:24.958Z,99906.68
2018-11-05T17:09:53.553Z,99911.61
2018-11-05T17:12:22.133Z,99906.95
2018-11-05T17:14:50.670Z,99908.98
2018-11-05T17:17:19.238Z,99912.48
2018-11-05T17:19:47.797Z,99908.11
2018-11-05T17:22:16.397Z,99902.59
2018-11-05T17:24:44.985Z,99905.28
2018-11-05T17:27:13.565Z,99905.08
2018-11-05T17:29:42.099Z,99907.77
2018-11-05T17:32:10.689Z,99906.34
2018-11-05T17:34:39.238Z,99901.25
2018-11-05T17:37:07.825Z,99903.50
2018-11-05T17:39:36.409Z,99907.24
2018-11-05T17:42:05.541Z,99894.67
2018-11-05T17:44:34.118Z,99908.98
2018-11-05T17:47:02.693Z,99912.80
2018-11-05T17:49:31.386Z,99903.60
2018-11-05T17:52:00.130Z,99908.45
2018-11-05T17:54:28.749Z,99910.84
2018-11-05T17:56:57.323Z,99907.05
2018-11-05T17:59:26.134Z,99919.55
2018-11-05T18:01:54.787Z,99901.73
2018-11-05T18:04:23.543Z,99911.77
2018-11-05T18:06:52.363Z,99910.56
2018-11-05T18:09:21.271Z,99915.73
2018-11-05T18:11:50.026Z,99911.52
2018-11-05T18:14:18.659Z,99919.33
2018-11-05T18:16:47.310Z,99921.52
2018-11-05T18:19:15.949Z,99916.00
2018-11-05T18:21:44.575Z,99914.31
2018-11-05T18:24:13.229Z,99914.74
2018-11-05T18:26:41.977Z,99915.45
2018-11-05T18:29:10.532Z,99919.42
2018-11-05T18:31:39.136Z,99923.64
2018-11-05T18:34:07.778Z,99924.78
2018-11-05T18:36:36.367Z,99928.45
2018-11-05T18:39:08.106Z,99932.13
2018-11-05T18:41:36.682Z,99934.37
2018-11-05T18:44:05.298Z,99923.18
2018-11-05T18:46:33.895Z,99930.41
2018-11-05T18:49:04.456Z,99934.67
2018-11-05T18:51:33.604Z,99922.83
2018-11-05T18:54:02.164Z,99930.94
2018-11-05T18:56:30.841Z,99928.19
2018-11-05T18:58:59.585Z,99929.21
2018-11-05T19:01:28.143Z,99929.28
2018-11-05T19:03:56.716Z,99931.16
2018-11-05T19:06:25.382Z,99934.14
2018-11-05T19:08:54.093Z,99927.20
2018-11-05T19:11:22.749Z,99933.16
2018-11-05T19:13:51.776Z,99926.67
2018-11-05T19:16:20.491Z,99924.22
2018-11-05T19:18:49.028Z,99919.55
2018-11-05T19:21:17.629Z,99923.11
2018-11-05T19:23:46.431Z,99927.95
2018-11-05T19:26:15.069Z,99920.88
2018-11-05T19:28:43.747Z,99919.09
2018-11-05T19:31:12.429Z,99918.10
2018-11-05T19:33:41.098Z,99921.77
2018-11-05T19:36:09.960Z,99928.47
2018-11-05T19:38:38.810Z,99928.23
2018-11-05T19:41:07.583Z,99917.67
2018-11-05T19:43:36.768Z,99918.25
2018-11-05T19:46:05.758Z,99922.33
2018-11-05T19:48:34.365Z,99921.87
2018-11-05T19:51:03.104Z,99922.69
2018-11-05T19:53:31.843Z,99923.38
2018-11-05T19:56:00.716Z,99920.82
2018-11-05T19:58:29.457Z,99918.37
2018-11-05T20:00:58.071Z,99917.48
2018-11-05T20:03:26.950Z,99914.73
2018-11-05T20:05:55.817Z,99916.48
2018-11-05T20:08:24.625Z,99927.51
2018-11-05T20:10:53.241Z,99932.69
2018-11-05T20:13:21.858Z,99930.39
2018-11-05T20:15:50.426Z,99921.83
2018-11-05T20:18:19.030Z,99915.88
2018-11-05T20:20:47.863Z,99914.31
2018-11-05T20:23:16.586Z,99913.20
2018-11-05T20:25:45.205Z,99928.70
2018-11-05T20:28:13.840Z,99914.83
2018-11-05T20:30:42.522Z,99914.52
2018-11-05T20:33:11.295Z,99909.31
2018-11-05T20:35:39.915Z,99903.71
2018-11-05T20:38:08.686Z,99893.30
2018-11-05T20:40:38.001Z,99898.78
2018-11-05T20:43:07.092Z,99902.67
2018-11-05T20:45:35.648Z,99905.52
2018-11-05T20:48:04.340Z,99909.66
2018-11-05T20:50:32.919Z,99907.55
2018-11-05T20:53:01.465Z,99894.66
2018-11-05T20:55:30.038Z,99891.91
2018-11-05T20:57:59.009Z,99887.30
2018-11-05T21:00:27.585Z,99895.36
2018-11-05T21:02:56.210Z,99891.39
2018-11-05T21:05:24.932Z,99879.77
2018-11-05T21:07:53.533Z,99890.39
2018-11-05T21:10:22.077Z,99897.55
2018-11-05T21:12:50.868Z,99893.67
2018-11-05T21:15:20.822Z,99889.11
2018-11-05T21:17:50.228Z,99888.06
2018-11-05T21:20:18.969Z,99883.98
2018-11-05T21:22:48.538Z,99883.59
2018-11-05T21:25:17.453Z,99879.28
2018-11-05T21:27:46.275Z,99865.91
2018-11-05T21:30:16.899Z,99869.88
2018-11-05T21:32:45.563Z,99870.58
2018-11-05T21:35:15.528Z,99874.08
2018-11-05T21:37:44.189Z,99872.73
2018-11-05T21:40:14.072Z,99880.47
2018-11-05T21:42:42.669Z,99865.88
2018-11-05T21:45:12.457Z,99866.23
2018-11-05T21:47:41.481Z,99864.16
2018-11-05T21:50:11.770Z,99863.87
2018-11-05T21:52:41.375Z,99859.23
2018-11-05T21:55:10.223Z,99866.70
2018-11-05T21:57:40.617Z,99871.34
2018-11-05T22:00:13.125Z,99867.19
2018-11-05T22:02:47.063Z,99875.09
2018-11-05T22:05:15.966Z,99879.16
2018-11-05T22:07:44.557Z,99879.34
2018-11-05T22:10:13.692Z,99879.48
2018-11-05T22:12:42.612Z,99873.46
2018-11-05T22:15:11.269Z,99875.62
2018-11-05T22:17:39.839Z,99874.66
2018-11-05T22:20:09.608Z,99872.95
2018-11-05T22:22:38.657Z,99876.53
2018-11-05T22:25:07.428Z,99884.64
2018-11-05T22:27:36.106Z,99883.76
2018-11-05T22:30:05.949Z,99887.19
2018-11-05T22:32:34.476Z,99896.41
2018-11-05T22:35:03.051Z,99898.50
2018-11-05T22:37:31.621Z,99895.69
2018-11-05T22:40:00.318Z,99896.86
2018-11-05T22:42:28.900Z,99901.01
2018-11-05T22:44:57.437Z,99902.67
2018-11-05T22:47:25.980Z,99892.48
2018-11-05T22:49:54.530Z,99893.95
2018-11-05T22:52:23.110Z,99881.64
2018-11-05T22:54:51.706Z,99886.86
2018-11-05T22:57:20.319Z,99882.90
2018-11-05T22:59:49.010Z,99881.38
2018-11-05T23:02:17.564Z,99883.25
2018-11-05T23:04:46.109Z,99880.56
2018-11-05T23:07:14.639Z,99873.45
2018-11-05T23:09:43.186Z,99874.69
2018-11-05T23:12:11.811Z,99875.20
2018-11-05T23:14:40.666Z,99874.16
2018-11-05T23:17:09.337Z,99865.41
2018-11-05T23:19:37.921Z,99879.70
2018-11-05T23:22:07.001Z,99866.77
2018-11-05T23:24:35.870Z,99867.95
2018-11-05T23:27:04.480Z,99870.10
2018-11-05T23:29:33.046Z,99872.85
2018-11-05T23:32:01.660Z,99879.13
2018-11-05T23:34:30.238Z,99871.09
2018-11-05T23:36:58.802Z,99868.02
2018-11-05T23:39:27.769Z,99875.98
2018-11-05T23:41:56.374Z,99871.37
2018-11-05T23:44:24.933Z,99877.38
2018-11-05T23:46:53.529Z,99867.64
2018-11-05T23:49:22.113Z,99876.12
2018-11-05T23:51:50.774Z,99877.24
2018-11-05T23:54:19.417Z,99875.50
2018-11-05T23:56:48.116Z,99880.86
2018-11-05T23:59:16.694Z,99885.03
